Time;durP1;ratioP1;P1;durP2;ratioP2;P2;SDS_P1;SDS_P2;PMS_P1;PMS_P2;Temp;Humidity;BMP_temperature;BMP_pressure;BME280_temperature;BME280_humidity;BME280_pressure;Samples;Min_cycle;Max_cycle;Signal;HPM_P1;HPM_P2
2023/09/24 00:01:04;;;;;;;6.53;6.03;;;11.80;99.90;;;;;;5043026;28;1078417;-55
2023/09/24 00:03:32;;;;;;;9.07;6.97;;;11.80;99.90;;;;;;5084978;28;20202;-53
2023/09/24 00:06:04;;;;;;;8.00;7.27;;;11.80;99.90;;;;;;5081317;28;20222;-51
2023/09/24 00:08:31;;;;;;;6.70;5.40;;;11.80;99.90;;;;;;5053600;28;20217;-53
2023/09/24 00:10:58;;;;;;;6.40;5.80;;;11.80;99.90;;;;;;5080483;28;20190;-46
2023/09/24 00:13:26;;;;;;;6.77;6.17;;;11.80;99.90;;;;;;5084727;28;20198;-50
2023/09/24 00:15:53;;;;;;;6.80;6.20;;;11.70;99.90;;;;;;5082849;28;20221;-44
2023/09/24 00:18:21;;;;;;;6.90;6.27;;;11.60;99.90;;;;;;5073516;28;20481;-53
2023/09/24 00:20:48;;;;;;;6.90;6.30;;;11.60;99.90;;;;;;5082557;28;20240;-47
2023/09/24 00:23:15;;;;;;;7.23;6.53;;;11.60;99.90;;;;;;5050221;28;20218;-55
2023/09/24 00:25:44;;;;;;;8.40;6.80;;;11.50;99.90;;;;;;5082725;28;20216;-56
2023/09/24 00:28:11;;;;;;;7.43;6.53;;;11.50;99.90;;;;;;5081580;28;20190;-57
2023/09/24 00:30:41;;;;;;;7.47;6.77;;;11.40;99.90;;;;;;5082800;28;20595;-49
2023/09/24 00:33:08;;;;;;;7.07;6.43;;;11.40;99.90;;;;;;5075863;28;20197;-54
2023/09/24 00:35:35;;;;;;;6.47;5.83;;;11.40;99.90;;;;;;5083281;28;20194;-54
2023/09/24 00:38:02;;;;;;;6.43;5.93;;;11.40;99.90;;;;;;5051900;28;20224;-48
2023/09/24 00:40:29;;;;;;;6.80;5.47;;;11.40;99.90;;;;;;5080352;28;20218;-46
2023/09/24 00:42:55;;;;;;;6.37;5.83;;;11.30;99.90;;;;;;5082355;28;20235;-48
2023/09/24 00:45:25;;;;;;;8.60;6.10;;;11.20;99.90;;;;;;5082055;28;20602;-56
2023/09/24 00:47:54;;;;;;;6.67;6.07;;;11.20;99.90;;;;;;5080793;28;20217;-49
2023/09/24 00:50:21;;;;;;;6.63;5.90;;;11.10;99.90;;;;;;5082328;28;20292;-56
2023/09/24 00:52:50;;;;;;;6.63;6.00;;;11.10;99.90;;;;;;5082082;28;20225;-49
2023/09/24 00:55:18;;;;;;;6.40;5.80;;;11.00;99.90;;;;;;5045985;28;20211;-55
2023/09/24 00:57:48;;;;;;;6.63;6.07;;;11.00;99.90;;;;;;5082503;28;20205;-49
2023/09/24 01:00:17;;;;;;;6.10;5.50;;;11.10;99.90;;;;;;5079352;28;20209;-52
2023/09/24 01:02:46;;;;;;;7.33;6.20;;;11.00;99.90;;;;;;5082285;28;20194;-46
2023/09/24 01:05:15;;;;;;;5.83;5.33;;;11.00;99.90;;;;;;5078819;28;20273;-53
2023/09/24 01:07:42;;;;;;;6.57;5.97;;;11.00;99.90;;;;;;5081233;28;20220;-50
2023/09/24 01:10:11;;;;;;;6.00;5.37;;;10.90;99.90;;;;;;5047177;28;20338;-56
2023/09/24 01:12:39;;;;;;;6.40;5.80;;;10.90;99.90;;;;;;5083360;28;20653;-51
2023/09/24 01:15:08;;;;;;;6.57;5.97;;;10.80;99.90;;;;;;5076818;28;20925;-54
2023/09/24 01:17:36;;;;;;;7.13;6.43;;;10.80;99.90;;;;;;5079947;28;20643;-53
2023/09/24 01:20:06;;;;;;;6.67;6.10;;;10.90;99.90;;;;;;5078894;28;20189;-52
2023/09/24 01:22:36;;;;;;;6.47;5.90;;;10.80;99.90;;;;;;5081814;28;20541;-50
2023/09/24 01:25:04;;;;;;;7.47;6.60;;;10.80;99.90;;;;;;5079544;28;20216;-52
2023/09/24 01:27:35;;;;;;;7.00;6.37;;;10.80;99.90;;;;;;5050385;28;20218;-51
2023/09/24 01:30:05;;;;;;;6.40;5.80;;;10.70;99.90;;;;;;5079442;28;20525;-48
2023/09/24 01:32:32;;;;;;;6.40;5.87;;;10.60;99.90;;;;;;5083383;28;20190;-57
2023/09/24 01:35:03;;;;;;;6.93;6.33;;;10.60;99.90;;;;;;5076384;28;20225;-45
2023/09/24 01:37:33;;;;;;;7.00;6.10;;;10.60;99.90;;;;;;5083523;28;20301;-55
2023/09/24 01:40:06;;;;;;;5.80;4.87;;;10.60;99.90;;;;;;5069977;28;20279;-50
2023/09/24 01:42:35;;;;;;;6.33;5.73;;;10.60;99.90;;;;;;5047080;28;20202;-52
2023/09/24 01:45:02;;;;;;;7.53;6.37;;;10.70;99.90;;;;;;5077948;28;20673;-45
2023/09/24 01:47:29;;;;;;;6.60;6.00;;;10.60;99.90;;;;;;5083222;28;20657;-55
2023/09/24 01:49:56;;;;;;;6.17;5.03;;;10.60;99.90;;;;;;5080328;28;20194;-49
2023/09/24 01:52:24;;;;;;;5.97;5.47;;;10.60;99.90;;;;;;5082472;28;20198;-52
2023/09/24 01:54:52;;;;;;;6.63;6.03;;;10.60;99.90;;;;;;5081319;28;20206;-47
2023/09/24 01:57:20;;;;;;;6.47;5.87;;;10.50;99.90;;;;;;5050306;28;20354;-54
2023/09/24 01:59:47;;;;;;;8.07;6.10;;;10.50;99.90;;;;;;5080823;28;20198;-50
2023/09/24 02:02:14;;;;;;;6.73;6.03;;;10.40;99.90;;;;;;5081107;28;20216;-55
2023/09/24 02:04:41;;;;;;;6.50;5.90;;;10.40;99.90;;;;;;5081841;28;20558;-54
2023/09/24 02:07:11;;;;;;;5.73;5.17;;;10.40;99.90;;;;;;5078287;28;20282;-53
2023/09/24 02:09:38;;;;;;;6.63;5.67;;;10.40;99.90;;;;;;5083116;28;20197;-54
2023/09/24 02:12:08;;;;;;;6.67;5.60;;;10.30;99.90;;;;;;5078721;28;20202;-51
2023/09/24 02:14:36;;;;;;;6.37;5.77;;;10.30;99.90;;;;;;5050387;28;20210;-53
2023/09/24 02:17:05;;;;;;;6.60;6.00;;;10.30;99.90;;;;;;5079441;28;20927;-55
2023/09/24 02:19:31;;;;;;;8.33;6.20;;;10.20;99.90;;;;;;5080691;28;20526;-49
2023/09/24 02:21:58;;;;;;;6.43;5.47;;;10.20;99.90;;;;;;5079439;28;20210;-47
2023/09/24 02:24:25;;;;;;;8.10;5.83;;;10.30;99.90;;;;;;5082099;28;20194;-57
2023/09/24 02:26:52;;;;;;;8.57;5.47;;;10.20;99.90;;;;;;5080049;28;20304;-48
2023/09/24 02:29:19;;;;;;;7.27;6.20;;;10.20;99.90;;;;;;5047141;28;20198;-53
2023/09/24 02:31:52;;;;;;;8.57;6.17;;;10.10;99.90;;;;;;5080354;28;20216;-46
2023/09/24 02:34:19;;;;;;;6.83;6.13;;;10.10;99.90;;;;;;5078291;28;20860;-52
2023/09/24 02:36:45;;;;;;;8.47;7.17;;;10.20;99.90;;;;;;5080046;28;20217;-49
2023/09/24 02:39:12;;;;;;;8.03;7.23;;;10.20;99.90;;;;;;5077092;28;20178;-55
2023/09/24 02:41:40;;;;;;;6.87;6.03;;;10.30;99.90;;;;;;5080081;28;20241;-57
2023/09/24 02:44:08;;;;;;;6.93;6.33;;;10.30;99.90;;;;;;5044348;28;21016;-56
2023/09/24 02:46:35;;;;;;;8.27;6.20;;;10.30;99.90;;;;;;5080687;28;20259;-57
2023/09/24 02:49:03;;;;;;;7.67;5.90;;;10.20;99.90;;;;;;5077779;28;20198;-51
2023/09/24 02:51:30;;;;;;;6.77;6.13;;;10.20;99.90;;;;;;5081618;28;20191;-52
2023/09/24 02:53:57;;;;;;;9.40;6.27;;;10.20;99.90;;;;;;5081956;28;20202;-47
2023/09/24 02:56:24;;;;;;;8.27;6.73;;;10.30;99.90;;;;;;5082763;28;20222;-54
2023/09/24 02:58:51;;;;;;;7.70;7.00;;;10.30;99.90;;;;;;5067794;28;20321;-45
2023/09/24 03:01:20;;;;;;;8.13;6.57;;;10.30;99.90;;;;;;5067499;28;20274;-51
2023/09/24 03:03:50;;;;;;;9.90;6.53;;;10.40;99.90;;;;;;5082306;28;20197;-49
2023/09/24 03:06:20;;;;;;;6.20;5.63;;;10.30;99.90;;;;;;5103529;27;20206;-56
2023/09/24 03:08:49;;;;;;;6.63;6.03;;;10.30;99.90;;;;;;5082680;28;20239;-50
2023/09/24 03:11:16;;;;;;;10.03;6.47;;;10.20;99.90;;;;;;5081669;28;20973;-55
2023/09/24 03:13:43;;;;;;;7.27;5.73;;;10.10;99.90;;;;;;5084078;28;20206;-57
2023/09/24 03:16:10;;;;;;;6.77;5.97;;;10.10;99.90;;;;;;5049720;28;20279;-52
2023/09/24 03:18:37;;;;;;;6.13;5.50;;;10.10;99.90;;;;;;5084868;28;20244;-57
2023/09/24 03:21:06;;;;;;;8.10;5.97;;;10.10;99.90;;;;;;5081752;28;20945;-55
2023/09/24 03:23:34;;;;;;;6.33;5.73;;;10.10;99.90;;;;;;5083686;28;20251;-54
2023/09/24 03:26:03;;;;;;;6.17;5.57;;;10.10;99.90;;;;;;5079306;28;20214;-51
2023/09/24 03:28:30;;;;;;;6.03;5.50;;;10.00;99.90;;;;;;5083749;28;20217;-52
2023/09/24 03:30:57;;;;;;;7.13;5.50;;;10.00;99.90;;;;;;5049441;28;20247;-45
2023/09/24 03:33:25;;;;;;;9.67;6.63;;;10.00;99.90;;;;;;5082800;28;20202;-53
2023/09/24 03:35:52;;;;;;;7.37;6.57;;;10.00;99.90;;;;;;5082713;28;20239;-49
2023/09/24 03:38:19;;;;;;;7.57;6.77;;;10.10;99.90;;;;;;5081898;28;20779;-57
2023/09/24 03:40:48;;;;;;;9.30;6.90;;;10.10;99.90;;;;;;5080619;28;20197;-48
2023/09/24 03:43:15;;;;;;;7.67;6.70;;;10.10;99.90;;;;;;5082434;28;20193;-51
2023/09/24 03:45:42;;;;;;;7.73;6.97;;;10.20;99.90;;;;;;5052166;28;20220;-52
2023/09/24 03:48:09;;;;;;;7.53;6.10;;;10.20;99.90;;;;;;5079490;28;20189;-53
2023/09/24 03:50:36;;;;;;;6.73;5.93;;;10.30;99.90;;;;;;5080030;28;20601;-47
2023/09/24 03:53:04;;;;;;;7.30;6.60;;;10.20;99.90;;;;;;5072351;28;20194;-49
2023/09/24 03:55:30;;;;;;;10.10;6.97;;;10.20;99.90;;;;;;5083841;28;20570;-53
2023/09/24 03:57:59;;;;;;;8.07;6.20;;;10.10;99.90;;;;;;5077967;28;20220;-44
2023/09/24 04:00:27;;;;;;;6.83;5.57;;;10.10;99.90;;;;;;5083584;28;20205;-50
2023/09/24 04:02:54;;;;;;;6.20;5.60;;;10.20;99.90;;;;;;5044279;28;20304;-49
2023/09/24 04:05:22;;;;;;;6.80;5.97;;;10.20;99.90;;;;;;5081453;28;20216;-52
2023/09/24 04:07:52;;;;;;;8.70;5.57;;;10.10;99.90;;;;;;5079123;28;20202;-61
2023/09/24 04:10:20;;;;;;;6.67;6.03;;;10.10;99.90;;;;;;5080937;28;20252;-44
2023/09/24 04:12:50;;;;;;;5.97;5.03;;;10.00;99.90;;;;;;5079826;28;20656;-59
2023/09/24 04:15:19;;;;;;;6.37;5.17;;;10.00;99.90;;;;;;5082055;28;20230;-47
2023/09/24 04:17:46;;;;;;;5.63;5.00;;;10.00;99.90;;;;;;5041673;28;20213;-59
2023/09/24 04:20:15;;;;;;;5.70;5.20;;;9.90;99.90;;;;;;5082384;28;20414;-44
2023/09/24 04:22:44;;;;;;;6.73;5.50;;;9.80;99.90;;;;;;5081320;28;20259;-59
2023/09/24 04:25:11;;;;;;;5.63;5.13;;;9.70;99.90;;;;;;5081754;28;20194;-46
2023/09/24 04:27:38;;;;;;;6.73;5.90;;;9.70;99.90;;;;;;5082166;28;20222;-59
2023/09/24 04:30:09;;;;;;;8.63;4.97;;;9.70;99.90;;;;;;5080365;28;20735;-44
2023/09/24 04:32:37;;;;;;;9.10;6.33;;;9.70;99.90;;;;;;5053215;28;20728;-59
2023/09/24 04:35:05;;;;;;;5.27;4.77;;;9.70;99.90;;;;;;5080310;28;20204;-51
2023/09/24 04:37:31;;;;;;;5.70;5.07;;;9.90;99.90;;;;;;5082956;28;20875;-52
2023/09/24 04:39:58;;;;;;;5.83;5.23;;;9.80;99.90;;;;;;5076573;28;20259;-49
2023/09/24 04:42:25;;;;;;;6.40;5.80;;;9.80;99.90;;;;;;5082158;28;20264;-51
2023/09/24 04:44:52;;;;;;;6.27;4.87;;;9.70;99.90;;;;;;5079404;28;20202;-53
2023/09/24 04:47:19;;;;;;;7.17;5.37;;;9.70;99.90;;;;;;5051978;28;20691;-49
2023/09/24 04:49:47;;;;;;;6.47;5.30;;;9.70;99.90;;;;;;5063473;28;20289;-51
2023/09/24 04:52:14;;;;;;;6.00;5.50;;;9.70;99.90;;;;;;5085194;28;20267;-51
2023/09/24 04:54:41;;;;;;;5.83;4.87;;;9.70;99.90;;;;;;5072577;28;20210;-53
2023/09/24 04:57:09;;;;;;;5.10;4.70;;;9.60;99.90;;;;;;5081424;28;20268;-50
2023/09/24 04:59:36;;;;;;;5.83;5.07;;;9.60;99.90;;;;;;5076003;28;20197;-53
2023/09/24 05:02:03;;;;;;;4.90;4.50;;;9.60;99.90;;;;;;5048758;28;25162;-51
2023/09/24 05:04:31;;;;;;;7.90;4.80;;;9.60;99.90;;;;;;5072624;28;20210;-53
2023/09/24 05:07:01;;;;;;;5.80;4.27;;;9.50;99.90;;;;;;5077403;28;20217;-52
2023/09/24 05:09:28;;;;;;;5.23;4.73;;;9.50;99.90;;;;;;5080677;28;20721;-53
2023/09/24 05:11:55;;;;;;;9.20;4.70;;;9.50;99.90;;;;;;5069257;28;20194;-47
2023/09/24 05:14:22;;;;;;;5.10;4.63;;;9.50;99.90;;;;;;5080982;28;20198;-50
2023/09/24 05:16:51;;;;;;;8.07;5.20;;;9.50;99.90;;;;;;5048040;28;20599;-50
2023/09/24 05:19:18;;;;;;;6.40;5.00;;;9.50;99.90;;;;;;5068251;28;20218;-50
2023/09/24 05:21:46;;;;;;;5.17;4.27;;;9.50;99.90;;;;;;5077313;28;20684;-53
2023/09/24 05:24:14;;;;;;;5.40;4.93;;;9.50;99.90;;;;;;5083962;28;20211;-48
2023/09/24 05:26:41;;;;;;;4.93;4.43;;;9.50;99.90;;;;;;5073592;28;20730;-53
2023/09/24 05:29:09;;;;;;;5.40;5.00;;;9.50;99.90;;;;;;5082360;28;20961;-50
2023/09/24 05:31:36;;;;;;;5.20;4.80;;;9.50;99.90;;;;;;5064832;28;21115;-51
2023/09/24 05:34:04;;;;;;;4.83;4.47;;;9.50;99.90;;;;;;5039788;28;20217;-54
2023/09/24 05:36:31;;;;;;;5.40;4.90;;;9.50;99.90;;;;;;5067961;28;21906;-49
2023/09/24 05:38:58;;;;;;;5.40;4.80;;;9.40;99.90;;;;;;5079829;28;20668;-53
2023/09/24 05:41:27;;;;;;;4.60;4.20;;;9.40;99.90;;;;;;5068633;28;20208;-48
2023/09/24 05:44:00;;;;;;;9.83;5.00;;;9.40;99.90;;;;;;5081646;28;20281;-46
2023/09/24 05:46:27;;;;;;;5.70;4.57;;;9.30;99.90;;;;;;5079208;28;20226;-49
2023/09/24 05:48:55;;;;;;;5.60;5.07;;;9.30;99.90;;;;;;5024749;28;20215;-46
2023/09/24 05:51:22;;;;;;;6.10;4.70;;;9.40;99.90;;;;;;5073693;28;20205;-49
2023/09/24 05:53:49;;;;;;;4.70;4.27;;;9.40;99.90;;;;;;5061735;28;20209;-49
2023/09/24 05:56:15;;;;;;;5.70;4.73;;;9.40;99.90;;;;;;5071159;28;20318;-50
2023/09/24 05:58:44;;;;;;;5.67;4.03;;;9.50;99.90;;;;;;5078430;28;20204;-54
2023/09/24 06:01:14;;;;;;;6.27;4.73;;;9.50;99.90;;;;;;5079171;28;20286;-47
2023/09/24 06:03:41;;;;;;;5.33;4.83;;;9.50;99.90;;;;;;5045922;28;20206;-54
2023/09/24 06:06:10;;;;;;;8.87;5.13;;;9.50;99.90;;;;;;5056143;28;23115;-47
2023/09/24 06:08:37;;;;;;;6.13;5.20;;;9.60;99.90;;;;;;5066318;28;20199;-53
2023/09/24 06:11:04;;;;;;;7.10;4.77;;;9.60;99.90;;;;;;5053374;28;20216;-47
2023/09/24 06:13:32;;;;;;;5.80;5.20;;;9.70;99.90;;;;;;5080987;28;20598;-52
2023/09/24 06:16:01;;;;;;;7.17;5.47;;;9.80;99.90;;;;;;5079339;28;20224;-49
2023/09/24 06:18:29;;;;;;;8.43;5.17;;;9.80;99.90;;;;;;5051899;28;20209;-47
2023/09/24 06:20:56;;;;;;;9.97;6.17;;;9.90;99.90;;;;;;5078565;28;20182;-49
2023/09/24 06:23:23;;;;;;;12.50;7.17;;;10.00;99.90;;;;;;5071981;28;20588;-49
2023/09/24 06:25:55;;;;;;;8.37;6.93;;;10.00;99.90;;;;;;5071127;28;20202;-51
2023/09/24 06:28:22;;;;;;;9.67;6.10;;;10.20;99.90;;;;;;5060449;28;20197;-47
2023/09/24 06:30:49;;;;;;;7.10;6.20;;;10.30;99.90;;;;;;5082393;28;20193;-49
2023/09/24 06:33:17;;;;;;;9.60;7.17;;;10.40;99.90;;;;;;5059400;28;20198;-48
2023/09/24 06:35:44;;;;;;;7.27;6.57;;;10.50;99.90;;;;;;5084261;28;20222;-53
2023/09/24 06:38:11;;;;;;;10.10;7.47;;;10.60;99.90;;;;;;5076978;28;20601;-52
2023/09/24 06:40:39;;;;;;;7.60;6.77;;;10.70;99.90;;;;;;5084302;28;20253;-52
2023/09/24 06:43:05;;;;;;;11.10;6.93;;;10.80;99.90;;;;;;5060842;28;20971;-48
2023/09/24 06:45:32;;;;;;;14.23;7.23;;;10.90;99.90;;;;;;5083881;28;20646;-53
2023/09/24 06:48:01;;;;;;;7.10;6.50;;;11.00;99.90;;;;;;5051374;28;20575;-50
2023/09/24 06:50:29;;;;;;;10.70;7.17;;;11.10;99.90;;;;;;5087032;28;20190;-48
2023/09/24 06:52:56;;;;;;;10.57;6.63;;;11.20;99.90;;;;;;5081654;28;20255;-48
2023/09/24 06:55:23;;;;;;;7.77;6.43;;;11.30;99.90;;;;;;5077258;28;20209;-48
2023/09/24 06:57:50;;;;;;;7.10;6.30;;;11.40;99.90;;;;;;5073266;28;20198;-49
2023/09/24 07:00:17;;;;;;;6.87;6.23;;;11.40;99.90;;;;;;5064979;28;20285;-47
2023/09/24 07:02:44;;;;;;;8.70;6.20;;;11.50;99.90;;;;;;5059785;28;20258;-50
2023/09/24 07:05:11;;;;;;;10.03;6.13;;;11.60;99.90;;;;;;5075065;28;20201;-47
2023/09/24 07:07:39;;;;;;;6.07;5.53;;;11.70;99.90;;;;;;5084725;28;20229;-54
2023/09/24 07:10:07;;;;;;;7.00;5.40;;;11.80;99.90;;;;;;5073598;28;20205;-49
2023/09/24 07:12:34;;;;;;;7.73;5.57;;;11.90;99.90;;;;;;5085269;28;20213;-54
2023/09/24 07:15:01;;;;;;;8.10;5.70;;;11.90;99.90;;;;;;5059674;28;20959;-48
2023/09/24 07:17:28;;;;;;;6.63;5.70;;;12.00;99.90;;;;;;5086656;28;20216;-47
2023/09/24 07:19:55;;;;;;;8.83;6.10;;;12.10;99.90;;;;;;5039589;28;20209;-48
2023/09/24 07:22:26;;;;;;;8.00;5.70;;;12.20;99.90;;;;;;5086224;28;20263;-49
2023/09/24 07:24:54;;;;;;;7.13;5.27;;;12.30;99.90;;;;;;5064775;28;20186;-46
2023/09/24 07:27:21;;;;;;;6.13;4.93;;;12.40;99.90;;;;;;5085319;28;20241;-50
2023/09/24 07:29:48;;;;;;;8.30;4.93;;;12.50;99.90;;;;;;5065049;28;20293;-51
2023/09/24 07:32:15;;;;;;;4.43;4.00;;;12.60;99.90;;;;;;5079394;28;20563;-47
2023/09/24 07:34:42;;;;;;;5.57;3.73;;;12.70;99.90;;;;;;5061261;28;20190;-52
2023/09/24 07:37:09;;;;;;;4.40;3.97;;;12.70;99.90;;;;;;5075122;28;20726;-48
2023/09/24 07:39:36;;;;;;;7.67;3.97;;;12.80;99.90;;;;;;5074481;28;20194;-53
2023/09/24 07:42:05;;;;;;;6.77;3.33;;;12.90;99.90;;;;;;5076973;28;20198;-50
2023/09/24 07:44:32;;;;;;;4.47;3.60;;;13.00;99.90;;;;;;5083762;28;20214;-52
2023/09/24 07:46:59;;;;;;;5.87;2.83;;;13.10;99.90;;;;;;5067114;28;20210;-46
2023/09/24 07:49:25;;;;;;;7.50;3.53;;;13.30;99.90;;;;;;5084038;28;20707;-47
2023/09/24 07:51:53;;;;;;;6.73;3.67;;;13.30;99.90;;;;;;5049892;28;20221;-47
2023/09/24 07:54:19;;;;;;;5.70;3.50;;;13.40;99.90;;;;;;5082581;28;20194;-48
2023/09/24 07:56:46;;;;;;;10.83;3.10;;;13.50;99.90;;;;;;5063123;28;20279;-52
2023/09/24 07:59:15;;;;;;;4.23;2.50;;;13.60;99.90;;;;;;5084314;28;20194;-49
2023/09/24 08:01:41;;;;;;;6.90;3.37;;;13.70;99.90;;;;;;5066988;28;20277;-53
2023/09/24 08:04:09;;;;;;;6.47;2.70;;;13.90;99.90;;;;;;5082255;28;20206;-50
2023/09/24 08:06:35;;;;;;;6.67;3.17;;;14.00;99.90;;;;;;5038209;28;20536;-49
2023/09/24 08:09:05;;;;;;;3.47;2.77;;;14.10;99.90;;;;;;5083143;28;20249;-49
2023/09/24 08:11:33;;;;;;;6.03;2.50;;;14.20;99.90;;;;;;5067959;28;20194;-52
2023/09/24 08:14:00;;;;;;;4.17;2.83;;;14.30;99.90;;;;;;5084420;28;20190;-54
2023/09/24 08:16:28;;;;;;;5.77;2.70;;;14.40;99.90;;;;;;5068816;28;20209;-52
2023/09/24 08:18:54;;;;;;;9.73;2.80;;;14.50;99.90;;;;;;5085631;28;20733;-51
2023/09/24 08:21:22;;;;;;;4.80;2.10;;;14.50;99.90;;;;;;5062344;28;20193;-51
2023/09/24 08:23:49;;;;;;;4.10;1.97;;;14.60;99.90;;;;;;5071664;28;20228;-46
2023/09/24 08:26:16;;;;;;;6.93;2.53;;;14.70;99.90;;;;;;5080515;28;20334;-54
2023/09/24 08:28:43;;;;;;;5.50;2.10;;;14.70;99.90;;;;;;5076548;28;20186;-46
2023/09/24 08:31:10;;;;;;;9.97;2.30;;;14.80;99.90;;;;;;5081458;28;20273;-47
2023/09/24 08:33:39;;;;;;;6.43;2.20;;;14.90;99.90;;;;;;5067136;28;20234;-51
2023/09/24 08:36:09;;;;;;;5.67;2.90;;;15.00;99.90;;;;;;5080810;28;20238;-47
2023/09/24 08:38:36;;;;;;;5.70;3.40;;;15.10;99.90;;;;;;5050270;28;20206;-52
2023/09/24 08:41:10;;;;;;;4.30;3.50;;;15.20;99.90;;;;;;5079257;28;20243;-52
2023/09/24 08:43:42;;;;;;;7.37;4.10;;;15.30;99.90;;;;;;5073029;28;20270;-48
2023/09/24 08:46:10;;;;;;;6.33;4.43;;;15.40;99.90;;;;;;5078652;28;20451;-48
2023/09/24 08:48:38;;;;;;;6.57;4.70;;;15.40;99.90;;;;;;5062915;28;20237;-47
2023/09/24 08:51:08;;;;;;;6.73;5.10;;;15.50;99.90;;;;;;5076982;28;20520;-50
2023/09/24 08:53:36;;;;;;;5.67;4.77;;;15.60;99.90;;;;;;5050981;28;20857;-49
2023/09/24 08:56:03;;;;;;;6.63;4.77;;;15.60;99.90;;;;;;5079067;28;20251;-48
2023/09/24 08:58:30;;;;;;;8.80;5.43;;;15.60;99.90;;;;;;5074644;28;20208;-50
2023/09/24 09:00:57;;;;;;;6.57;4.40;;;15.60;99.90;;;;;;5083025;28;20262;-53
2023/09/24 09:03:24;;;;;;;6.03;5.10;;;15.70;99.90;;;;;;5066119;28;20620;-47
2023/09/24 09:05:52;;;;;;;4.40;3.73;;;15.80;99.90;;;;;;5078044;28;20707;-51
2023/09/24 09:08:19;;;;;;;6.20;3.97;;;15.80;99.90;;;;;;5052318;28;20564;-45
2023/09/24 09:10:49;;;;;;;4.33;2.90;;;15.80;99.90;;;;;;5081479;28;20669;-51
2023/09/24 09:13:18;;;;;;;2.97;2.67;;;15.90;99.90;;;;;;5067193;28;20219;-49
2023/09/24 09:15:46;;;;;;;4.07;2.70;;;16.00;99.90;;;;;;5085183;28;20210;-52
2023/09/24 09:18:23;;;;;;;3.73;2.80;;;15.90;99.90;;;;;;5069525;28;20205;-50
2023/09/24 09:20:58;;;;;;;5.63;2.90;;;16.00;99.90;;;;;;5071988;28;20286;-46
2023/09/24 09:23:32;;;;;;;4.33;2.67;;;16.00;99.90;;;;;;5034438;28;20217;-49
2023/09/24 09:25:59;;;;;;;4.83;2.10;;;16.10;99.90;;;;;;5082974;28;20224;-47
2023/09/24 09:28:27;;;;;;;3.50;2.17;;;16.10;99.90;;;;;;5070102;28;20247;-48
2023/09/24 09:31:02;;;;;;;2.77;1.80;;;16.20;99.90;;;;;;5083491;28;20194;-48
2023/09/24 09:33:31;;;;;;;4.63;1.70;;;16.20;99.90;;;;;;5066865;28;20204;-53
2023/09/24 09:36:00;;;;;;;4.93;2.33;;;16.20;99.90;;;;;;5083091;28;20897;-50
2023/09/24 09:38:27;;;;;;;2.50;1.80;;;16.30;99.90;;;;;;5048753;28;20213;-51
2023/09/24 09:40:55;;;;;;;4.47;2.67;;;16.30;99.90;;;;;;5070721;28;20276;-49
2023/09/24 09:43:25;;;;;;;7.50;2.43;;;16.40;99.90;;;;;;5077523;28;20221;-51
2023/09/24 09:45:53;;;;;;;5.43;2.20;;;16.60;99.90;;;;;;5079110;28;20224;-47
2023/09/24 09:48:28;;;;;;;3.97;2.23;;;16.80;99.90;;;;;;5076049;28;20644;-53
2023/09/24 09:51:07;;;;;;;4.77;2.50;;;16.90;99.90;;;;;;5065233;28;20217;-52
2023/09/24 09:53:35;;;;;;;3.37;1.60;;;17.00;99.90;;;;;;5043670;28;20261;-50
2023/09/24 09:56:04;;;;;;;2.30;1.40;;;17.00;99.90;;;;;;5072462;28;20279;-50
2023/09/24 09:58:32;;;;;;;4.07;2.00;;;17.00;99.90;;;;;;5068364;28;20281;-49
2023/09/24 10:01:00;;;;;;;3.13;1.67;;;17.00;99.90;;;;;;5074292;28;20202;-52
2023/09/24 10:03:28;;;;;;;3.73;1.90;;;17.20;99.90;;;;;;5075477;28;20942;-48
2023/09/24 10:05:57;;;;;;;2.20;2.00;;;17.20;99.90;;;;;;5061115;28;20641;-49
2023/09/24 10:08:39;;;;;;;3.77;2.00;;;17.30;99.90;;;;;;5053600;28;20916;-46
2023/09/24 10:11:06;;;;;;;3.50;1.93;;;17.10;99.90;;;;;;5072947;28;20201;-53
2023/09/24 10:13:51;;;;;;;4.90;1.80;;;17.00;99.90;;;;;;5088124;28;20243;-47
2023/09/24 10:16:31;;;;;;;2.47;1.83;;;17.20;99.90;;;;;;5073137;28;20213;-46
2023/09/24 10:18:59;;;;;;;4.90;2.00;;;17.20;99.90;;;;;;5076839;28;20225;-53
2023/09/24 10:21:31;;;;;;;3.93;1.70;;;17.20;99.90;;;;;;5062285;28;20200;-47
2023/09/24 10:23:59;;;;;;;4.70;1.57;;;17.30;99.90;;;;;;5052323;28;20596;-51
2023/09/24 10:26:47;;;;;;;2.67;1.50;;;17.40;99.90;;;;;;5076053;28;20217;-44
2023/09/24 10:29:14;;;;;;;3.27;1.73;;;17.50;99.90;;;;;;5083469;28;20886;-47
2023/09/24 10:32:12;;;;;;;5.67;1.80;;;17.50;99.90;;;;;;5081503;28;20200;-46
2023/09/24 10:35:08;;;;;;;2.07;1.70;;;17.50;99.90;;;;;;5076941;28;20676;-47
2023/09/24 10:37:37;;;;;;;3.60;1.67;;;17.40;99.90;;;;;;5089176;28;20209;-48
2023/09/24 10:40:09;;;;;;;3.63;1.60;;;17.30;99.90;;;;;;5046793;28;20210;-48
2023/09/24 10:42:38;;;;;;;3.27;1.83;;;17.40;99.90;;;;;;5075903;28;20194;-47
2023/09/24 10:45:26;;;;;;;1.93;1.40;;;17.50;99.90;;;;;;5082769;28;20218;-47
2023/09/24 10:47:52;;;;;;;4.30;1.70;;;17.40;99.90;;;;;;5076317;28;20197;-47
2023/09/24 10:50:20;;;;;;;3.27;1.63;;;17.30;99.90;;;;;;5049924;28;20652;-47
2023/09/24 10:52:48;;;;;;;6.60;1.13;;;17.40;99.90;;;;;;5086808;28;20202;-47
2023/09/24 10:55:17;;;;;;;1.43;0.80;;;17.40;99.90;;;;;;5043455;28;20206;-49
2023/09/24 10:57:45;;;;;;;3.60;1.90;;;17.50;99.90;;;;;;5085915;28;20237;-46
2023/09/24 11:00:15;;;;;;;4.13;1.90;;;17.50;99.90;;;;;;5083999;28;20266;-47
2023/09/24 11:02:42;;;;;;;3.33;2.20;;;17.50;99.90;;;;;;5075111;28;20206;-49
2023/09/24 11:05:10;;;;;;;3.37;1.80;;;17.60;99.90;;;;;;5072677;28;20218;-50
2023/09/24 11:07:38;;;;;;;4.40;1.97;;;17.60;99.90;;;;;;5064371;28;21028;-47
2023/09/24 11:10:05;;;;;;;2.50;1.63;;;17.70;99.90;;;;;;5049589;28;20267;-48
2023/09/24 11:12:33;;;;;;;1.97;1.50;;;17.70;99.90;;;;;;5084002;28;20712;-48
2023/09/24 11:15:00;;;;;;;3.07;2.03;;;17.60;99.90;;;;;;5084435;28;20644;-49
2023/09/24 11:17:27;;;;;;;4.83;2.50;;;17.60;99.90;;;;;;5087123;28;20210;-47
2023/09/24 11:19:54;;;;;;;2.67;1.80;;;17.70;99.90;;;;;;5072383;28;20209;-51
2023/09/24 11:22:22;;;;;;;2.87;1.40;;;17.70;99.90;;;;;;5063922;28;20295;-51
2023/09/24 11:25:05;;;;;;;3.10;1.43;;;17.80;99.90;;;;;;5084551;28;20279;-50
2023/09/24 11:27:34;;;;;;;3.63;1.40;;;18.00;99.90;;;;;;5083409;28;20222;-52
2023/09/24 11:30:02;;;;;;;4.87;1.90;;;18.20;99.90;;;;;;5087791;28;20201;-50
2023/09/24 11:32:29;;;;;;;2.73;1.50;;;18.30;99.90;;;;;;5080350;28;20190;-49
2023/09/24 11:35:09;;;;;;;2.70;1.50;;;18.30;99.90;;;;;;5076024;28;20323;-46
2023/09/24 11:37:48;;;;;;;3.30;1.70;;;18.20;99.90;;;;;;5053443;28;20226;-51
2023/09/24 11:40:29;;;;;;;4.03;1.70;;;18.20;99.90;;;;;;5081188;28;20198;-50
2023/09/24 11:42:58;;;;;;;1.83;1.73;;;18.10;99.90;;;;;;5085254;28;20206;-53
2023/09/24 11:45:39;;;;;;;2.10;1.60;;;18.20;99.90;;;;;;5088955;28;20226;-50
2023/09/24 11:48:08;;;;;;;2.90;1.90;;;18.20;99.90;;;;;;5088084;28;20201;-47
2023/09/24 11:50:36;;;;;;;4.27;2.20;;;18.20;99.90;;;;;;5069773;28;20293;-52
2023/09/24 11:53:03;;;;;;;3.20;3.00;;;18.10;99.90;;;;;;5045186;28;21028;-49
2023/09/24 11:55:30;;;;;;;3.57;3.27;;;17.90;99.90;;;;;;5085481;28;20194;-47
2023/09/24 11:57:58;;;;;;;2.30;2.10;;;17.80;99.90;;;;;;5052074;28;20229;-49
2023/09/24 12:00:25;;;;;;;1.63;1.50;;;17.70;99.90;;;;;;5086775;28;20193;-47
2023/09/24 12:02:52;;;;;;;3.00;2.70;;;17.70;99.90;;;;;;5083669;28;20206;-48
2023/09/24 12:05:20;;;;;;;3.47;2.60;;;17.70;99.90;;;;;;5073846;28;20278;-49
2023/09/24 12:07:49;;;;;;;2.43;2.10;;;17.60;99.90;;;;;;5071473;28;20515;-50
2023/09/24 12:10:17;;;;;;;3.47;1.63;;;17.40;99.90;;;;;;5071587;28;20278;-50
2023/09/24 12:12:44;;;;;;;2.33;1.37;;;17.20;99.90;;;;;;5051697;28;20201;-49
2023/09/24 12:15:13;;;;;;;1.77;1.20;;;17.20;99.90;;;;;;5080806;28;20200;-47
2023/09/24 12:17:41;;;;;;;1.70;1.40;;;17.20;99.90;;;;;;5084302;28;20214;-47
2023/09/24 12:20:09;;;;;;;1.43;1.13;;;17.20;99.90;;;;;;5068147;28;20199;-50
2023/09/24 12:22:36;;;;;;;1.77;1.30;;;17.30;99.90;;;;;;5074329;28;20209;-47
2023/09/24 12:25:03;;;;;;;1.97;1.30;;;17.30;99.90;;;;;;5062858;28;21304;-48
2023/09/24 12:27:30;;;;;;;1.70;1.20;;;17.30;99.90;;;;;;5053109;28;20271;-50
2023/09/24 12:29:56;;;;;;;1.10;1.00;;;17.50;99.90;;;;;;5078640;28;20277;-51
2023/09/24 12:32:24;;;;;;;2.20;1.30;;;17.50;99.90;;;;;;5083480;28;20618;-49
2023/09/24 12:34:51;;;;;;;3.53;1.17;;;17.40;99.90;;;;;;5086930;28;20190;-49
2023/09/24 12:37:18;;;;;;;1.27;1.23;;;17.20;99.90;;;;;;5073847;28;20302;-48
2023/09/24 12:39:45;;;;;;;1.30;1.20;;;17.20;99.90;;;;;;5058579;28;20214;-51
2023/09/24 12:42:12;;;;;;;1.23;1.23;;;17.30;99.90;;;;;;5049291;28;20680;-49
2023/09/24 12:44:38;;;;;;;2.07;1.27;;;17.10;99.90;;;;;;5083963;28;20206;-47
2023/09/24 12:47:05;;;;;;;1.88;1.42;;;17.10;99.90;;;;;;5084194;28;20432;-49
2023/09/24 12:49:34;;;;;;;1.60;1.50;;;17.40;99.90;;;;;;5082127;28;20201;-48
2023/09/24 12:52:01;;;;;;;1.30;1.20;;;17.60;99.90;;;;;;5075576;28;20202;-47
2023/09/24 12:54:28;;;;;;;2.50;1.40;;;17.60;99.90;;;;;;5048747;28;20214;-48